Time;durP1;ratioP1;P1;durP2;ratioP2;P2;SDS_P1;SDS_P2;PMS_P1;PMS_P2;Temp;Humidity;BMP_temperature;BMP_pressure;BME280_temperature;BME280_humidity;BME280_pressure;Samples;Min_cycle;Max_cycle;Signal;HPM_P1;HPM_P2
2022/12/28 00:00:13;;;;;;;1.30;1.20;;;;;;;;;;5091078;28;20215;-76
2022/12/28 00:02:40;;;;;;;1.63;1.33;;;;;;;;;;5101728;28;20210;-76
2022/12/28 00:05:07;;;;;;;1.37;1.27;;;;;;;;;;5099401;28;20229;-76
2022/12/28 00:07:34;;;;;;;2.80;1.30;;;;;;;;;;5111593;28;20204;-77
2022/12/28 00:10:00;;;;;;;1.63;1.50;;;;;;;;;;5097252;28;20253;-77
2022/12/28 00:12:27;;;;;;;1.50;1.40;;;;;;;;;;5110529;28;20200;-77
2022/12/28 00:14:55;;;;;;;1.53;1.43;;;;;;;;;;5097441;28;20206;-77
2022/12/28 00:17:22;;;;;;;1.37;1.27;;;;;;;;;;5110527;28;20203;-76
2022/12/28 00:19:48;;;;;;;1.70;1.30;;;;;;;;;;5084812;28;20199;-77
2022/12/28 00:22:15;;;;;;;1.30;1.20;;;;;;;;;;5110654;28;20199;-77
2022/12/28 00:24:42;;;;;;;2.27;1.33;;;;;;;;;;5097963;28;20196;-77
2022/12/28 00:27:09;;;;;;;1.53;1.20;;;;;;;;;;5111266;28;20693;-76
2022/12/28 00:29:35;;;;;;;1.30;1.20;;;;;;;;;;5111097;28;20196;-77
2022/12/28 00:32:04;;;;;;;1.50;1.40;;;;;;;;;;5110618;28;20208;-77
2022/12/28 00:34:30;;;;;;;1.30;1.27;;;;;;;;;;5111009;28;20203;-82
2022/12/28 00:36:57;;;;;;;2.30;1.40;;;;;;;;;;5110340;28;20234;-80
2022/12/28 00:39:24;;;;;;;1.37;1.30;;;;;;;;;;5110924;28;20203;-77
2022/12/28 00:41:51;;;;;;;1.70;1.50;;;;;;;;;;5090987;28;20242;-76
2022/12/28 00:44:17;;;;;;;3.83;1.80;;;;;;;;;;5090474;28;20197;-77
2022/12/28 00:46:44;;;;;;;2.47;1.70;;;;;;;;;;5090588;28;20201;-77
2022/12/28 00:49:12;;;;;;;2.30;1.73;;;;;;;;;;5090880;28;20208;-78
2022/12/28 00:51:39;;;;;;;2.10;1.83;;;;;;;;;;5083609;28;20256;-77
2022/12/28 00:54:06;;;;;;;1.67;1.57;;;;;;;;;;5110697;28;20260;-77
2022/12/28 00:56:32;;;;;;;1.60;1.50;;;;;;;;;;5110977;28;20287;-77
2022/12/28 00:58:59;;;;;;;2.20;1.70;;;;;;;;;;5096061;28;20623;-76
2022/12/28 01:01:27;;;;;;;1.63;1.53;;;;;;;;;;5103378;28;20211;-78
2022/12/28 01:03:55;;;;;;;1.43;1.33;;;;;;;;;;5110537;28;20601;-77
2022/12/28 01:06:24;;;;;;;3.10;1.83;;;;;;;;;;5094032;28;20848;-77
2022/12/28 01:08:51;;;;;;;2.63;1.93;;;;;;;;;;5090846;28;20628;-77
2022/12/28 01:11:19;;;;;;;2.10;1.90;;;;;;;;;;5089715;28;20582;-77
2022/12/28 01:13:46;;;;;;;2.57;1.70;;;;;;;;;;5090490;28;20204;-77
2022/12/28 01:16:14;;;;;;;2.20;1.30;;;;;;;;;;5090117;28;20228;-77
2022/12/28 01:18:41;;;;;;;1.40;1.30;;;;;;;;;;5090401;28;20245;-79
2022/12/28 01:21:10;;;;;;;1.40;1.30;;;;;;;;;;5090312;28;20211;-77
2022/12/28 01:23:39;;;;;;;1.27;1.23;;;;;;;;;;5090398;28;20269;-77
2022/12/28 01:26:06;;;;;;;1.00;0.93;;;;;;;;;;5092651;28;20200;-77
2022/12/28 01:28:33;;;;;;;1.27;1.20;;;;;;;;;;5094602;28;20219;-76
2022/12/28 01:31:04;;;;;;;1.60;1.40;;;;;;;;;;5093765;28;20253;-76
2022/12/28 01:33:30;;;;;;;1.17;1.13;;;;;;;;;;5094106;28;21044;-76
2022/12/28 01:35:57;;;;;;;1.33;1.23;;;;;;;;;;5093666;28;20220;-77
2022/12/28 01:38:24;;;;;;;2.17;1.50;;;;;;;;;;5111627;28;20199;-76
2022/12/28 01:40:52;;;;;;;1.70;1.50;;;;;;;;;;5114274;28;20354;-77
2022/12/28 01:43:19;;;;;;;4.47;1.57;;;;;;;;;;5113809;28;20199;-76
2022/12/28 01:45:49;;;;;;;4.73;1.90;;;;;;;;;;5114525;28;20203;-77
2022/12/28 01:48:20;;;;;;;1.70;1.40;;;;;;;;;;5113856;28;20206;-76
2022/12/28 01:50:48;;;;;;;1.33;1.30;;;;;;;;;;5114407;28;20222;-77
2022/12/28 01:53:16;;;;;;;1.47;1.37;;;;;;;;;;5114095;28;20252;-77
2022/12/28 01:55:43;;;;;;;3.30;1.90;;;;;;;;;;5114309;28;20272;-76
2022/12/28 01:58:14;;;;;;;3.63;1.60;;;;;;;;;;5113815;28;20200;-77
2022/12/28 02:00:41;;;;;;;1.50;1.40;;;;;;;;;;5114032;28;20211;-77
2022/12/28 02:03:10;;;;;;;4.80;2.63;;;;;;;;;;5113843;28;20700;-77
2022/12/28 02:05:40;;;;;;;3.87;2.23;;;;;;;;;;5113762;28;20203;-77
2022/12/28 02:08:10;;;;;;;1.27;1.17;;;;;;;;;;5113851;28;20635;-77
2022/12/28 02:10:37;;;;;;;1.37;1.17;;;;;;;;;;5113966;28;20265;-77
2022/12/28 02:13:05;;;;;;;1.53;1.43;;;;;;;;;;5113058;28;20211;-77
2022/12/28 02:15:33;;;;;;;1.30;1.20;;;;;;;;;;5113538;28;20196;-77
2022/12/28 02:18:00;;;;;;;3.23;1.77;;;;;;;;;;5113251;28;20260;-77
2022/12/28 02:20:31;;;;;;;1.60;1.50;;;;;;;;;;5113461;28;20207;-77
2022/12/28 02:23:18;;;;;;;1.47;1.20;;;;;;;;;;5113235;28;20199;-77
2022/12/28 02:26:09;;;;;;;2.00;1.70;;;;;;;;;;5112924;28;20211;-78
2022/12/28 02:29:20;;;;;;;3.50;1.90;;;;;;;;;;5113508;28;20200;-77
2022/12/28 02:31:53;;;;;;;2.00;1.67;;;;;;;;;;5075470;28;20208;-77
2022/12/28 02:34:24;;;;;;;1.43;1.33;;;;;;;;;;5093203;28;20197;-76
2022/12/28 02:36:55;;;;;;;1.83;1.60;;;;;;;;;;5091916;28;20288;-78
2022/12/28 02:39:24;;;;;;;1.60;1.50;;;;;;;;;;5087274;28;20253;-77
2022/12/28 02:41:51;;;;;;;2.43;1.83;;;;;;;;;;5112724;28;20207;-77
2022/12/28 02:52:35;;;;;;;2.03;1.77;;;;;;;;;;5112547;28;20750;-77
2022/12/28 02:58:11;;;;;;;2.10;1.90;;;;;;;;;;5067749;28;20234;-77
2022/12/28 03:00:46;;;;;;;1.87;1.60;;;;;;;;;;5112421;28;20635;-78
2022/12/28 03:03:21;;;;;;;2.37;2.13;;;;;;;;;;5112499;28;20688;-77
2022/12/28 03:08:44;;;;;;;2.23;2.10;;;;;;;;;;5080437;28;20742;-80
2022/12/28 03:11:14;;;;;;;2.47;2.27;;;;;;;;;;5091955;28;20212;-78
2022/12/28 03:13:43;;;;;;;2.27;2.07;;;;;;;;;;5102832;28;20647;-77
2022/12/28 03:16:13;;;;;;;2.50;2.30;;;;;;;;;;5112328;28;20284;-78
2022/12/28 03:32:28;;;;;;;3.47;2.83;;;;;;;;;;5111967;28;20222;-77
2022/12/28 03:34:56;;;;;;;2.30;2.13;;;;;;;;;;5111778;28;20207;-77
2022/12/28 03:37:27;;;;;;;3.20;2.33;;;;;;;;;;5111216;28;20314;-77
2022/12/28 03:39:58;;;;;;;2.30;2.10;;;;;;;;;;5111986;28;20259;-77
2022/12/28 03:45:16;;;;;;;1.80;1.60;;;;;;;;;;5111523;28;20637;-78
2022/12/28 03:47:45;;;;;;;4.50;2.37;;;;;;;;;;5111424;28;20278;-76
2022/12/28 03:50:15;;;;;;;2.80;2.50;;;;;;;;;;5111742;28;20597;-77
2022/12/28 03:52:42;;;;;;;7.23;4.40;;;;;;;;;;5111835;28;20597;-77
2022/12/28 03:55:10;;;;;;;2.90;2.70;;;;;;;;;;5111665;28;20250;-76
2022/12/28 03:57:37;;;;;;;4.73;4.23;;;;;;;;;;5111342;28;20597;-77
2022/12/28 04:00:05;;;;;;;4.07;3.50;;;;;;;;;;5111447;28;20662;-77
2022/12/28 04:02:32;;;;;;;2.80;2.50;;;;;;;;;;5111993;28;20282;-76
2022/12/28 04:04:58;;;;;;;2.43;2.23;;;;;;;;;;5111108;28;20235;-76
2022/12/28 04:07:26;;;;;;;2.57;2.37;;;;;;;;;;5111932;28;20207;-80
2022/12/28 04:09:53;;;;;;;4.93;1.90;;;;;;;;;;5111118;28;20200;-79
2022/12/28 04:12:21;;;;;;;2.27;2.00;;;;;;;;;;5111878;28;20203;-75
2022/12/28 04:14:47;;;;;;;2.37;2.17;;;;;;;;;;5111163;28;20202;-76
2022/12/28 04:17:14;;;;;;;2.50;2.30;;;;;;;;;;5110865;28;20655;-76
2022/12/28 04:19:41;;;;;;;3.10;2.00;;;;;;;;;;5111465;28;20260;-75
2022/12/28 04:22:07;;;;;;;2.00;1.80;;;;;;;;;;5111476;28;20195;-76
2022/12/28 04:24:36;;;;;;;2.47;2.27;;;;;;;;;;5111115;28;20286;-76
2022/12/28 04:27:02;;;;;;;5.00;3.00;;;;;;;;;;5110791;28;21023;-75
2022/12/28 04:29:29;;;;;;;2.37;2.07;;;;;;;;;;5110624;28;20256;-75
2022/12/28 04:31:56;;;;;;;2.63;2.43;;;;;;;;;;5111084;28;20624;-75
2022/12/28 04:34:22;;;;;;;2.00;1.90;;;;;;;;;;5077301;28;20200;-76
2022/12/28 04:36:49;;;;;;;2.33;2.13;;;;;;;;;;5089909;28;20699;-76
2022/12/28 04:39:16;;;;;;;3.30;2.57;;;;;;;;;;5091124;28;20740;-76
2022/12/28 04:41:44;;;;;;;2.53;2.33;;;;;;;;;;5090650;28;20204;-76
2022/12/28 04:44:11;;;;;;;2.03;1.73;;;;;;;;;;5090507;28;20671;-77
2022/12/28 04:46:37;;;;;;;2.33;2.13;;;;;;;;;;5090140;28;20701;-76
2022/12/28 04:49:05;;;;;;;3.37;2.60;;;;;;;;;;5090552;28;20200;-76
2022/12/28 04:51:34;;;;;;;3.63;2.23;;;;;;;;;;5089670;28;20691;-76
2022/12/28 04:54:01;;;;;;;3.17;2.47;;;;;;;;;;5090611;28;20207;-76
2022/12/28 04:56:27;;;;;;;2.20;2.00;;;;;;;;;;5089831;28;20200;-76
2022/12/28 04:58:56;;;;;;;1.90;1.80;;;;;;;;;;5090730;28;20631;-76
2022/12/28 05:01:23;;;;;;;11.30;6.70;;;;;;;;;;5090350;28;20200;-76
2022/12/28 05:03:52;;;;;;;12.23;8.13;;;;;;;;;;5089931;28;20289;-79
2022/12/28 05:06:21;;;;;;;4.93;2.63;;;;;;;;;;5089921;28;20223;-76
2022/12/28 05:08:48;;;;;;;3.00;2.77;;;;;;;;;;5090396;28;20219;-77
2022/12/28 05:11:17;;;;;;;2.90;2.57;;;;;;;;;;5090380;28;20200;-77
2022/12/28 05:13:44;;;;;;;3.50;3.00;;;;;;;;;;5090545;28;20196;-80
2022/12/28 05:16:14;;;;;;;3.37;3.10;;;;;;;;;;5090130;28;20207;-77
2022/12/28 05:18:41;;;;;;;2.60;2.37;;;;;;;;;;5090044;28;20223;-76
2022/12/28 05:21:09;;;;;;;2.50;2.30;;;;;;;;;;5089907;28;20200;-76
2022/12/28 05:23:37;;;;;;;2.67;2.10;;;;;;;;;;5090295;28;20196;-76
2022/12/28 05:26:05;;;;;;;3.00;2.57;;;;;;;;;;5090311;28;20208;-76
2022/12/28 05:28:32;;;;;;;4.33;3.80;;;;;;;;;;5090046;28;20259;-76
2022/12/28 05:31:00;;;;;;;2.57;2.37;;;;;;;;;;5089877;28;20223;-77
2022/12/28 05:33:28;;;;;;;2.50;1.87;;;;;;;;;;5089449;28;20200;-76
2022/12/28 05:35:55;;;;;;;2.97;2.00;;;;;;;;;;5090015;28;20215;-76
2022/12/28 05:38:22;;;;;;;2.37;2.17;;;;;;;;;;5089834;28;20223;-76
2022/12/28 05:40:49;;;;;;;2.70;2.23;;;;;;;;;;5089945;28;20204;-76
2022/12/28 05:43:15;;;;;;;1.87;1.77;;;;;;;;;;5089771;28;20204;-77
2022/12/28 05:45:42;;;;;;;2.27;2.07;;;;;;;;;;5090069;28;20200;-76
2022/12/28 05:48:09;;;;;;;2.77;2.57;;;;;;;;;;5089820;28;20230;-76
2022/12/28 05:50:37;;;;;;;5.47;4.00;;;;;;;;;;5090155;28;20644;-76
2022/12/28 05:53:03;;;;;;;4.70;4.30;;;;;;;;;;5087802;28;20683;-77
2022/12/28 05:55:30;;;;;;;7.07;4.30;;;;;;;;;;5088250;28;20201;-78
2022/12/28 05:57:57;;;;;;;6.60;5.17;;;;;;;;;;5088821;28;20228;-79
2022/12/28 06:00:24;;;;;;;4.33;3.90;;;;;;;;;;5088627;28;20204;-78
2022/12/28 06:02:50;;;;;;;4.43;3.33;;;;;;;;;;5088348;28;20197;-78
2022/12/28 06:05:17;;;;;;;9.03;5.03;;;;;;;;;;5069797;28;20277;-78
2022/12/28 06:07:46;;;;;;;14.00;9.23;;;;;;;;;;5054489;28;20201;-79
2022/12/28 06:10:15;;;;;;;57.10;35.73;;;;;;;;;;5078934;28;20219;-79
2022/12/28 06:12:42;;;;;;;51.20;31.07;;;;;;;;;;5112162;28;20225;-79
2022/12/28 06:15:11;;;;;;;6.13;5.53;;;;;;;;;;5094780;28;20204;-78
2022/12/28 06:17:37;;;;;;;2.90;2.60;;;;;;;;;;5090606;28;20227;-78
2022/12/28 06:20:06;;;;;;;10.93;9.20;;;;;;;;;;5102024;28;20260;-78
2022/12/28 06:22:33;;;;;;;26.50;20.07;;;;;;;;;;5112256;28;20277;-79
2022/12/28 06:25:01;;;;;;;62.10;42.23;;;;;;;;;;5112016;28;20211;-78
2022/12/28 06:27:28;;;;;;;44.50;28.73;;;;;;;;;;5094364;28;20200;-78
2022/12/28 06:29:55;;;;;;;35.70;26.40;;;;;;;;;;5100105;28;20204;-78
2022/12/28 06:32:22;;;;;;;41.97;26.77;;;;;;;;;;5041328;28;20280;-79
2022/12/28 06:34:49;;;;;;;32.63;22.30;;;;;;;;;;5092627;28;20296;-78
2022/12/28 06:37:16;;;;;;;29.70;19.33;;;;;;;;;;5075042;28;20505;-78
2022/12/28 06:39:43;;;;;;;31.23;24.33;;;;;;;;;;5071679;28;20192;-78
2022/12/28 06:42:11;;;;;;;28.47;21.90;;;;;;;;;;5085743;28;20204;-78
2022/12/28 06:44:38;;;;;;;28.47;21.37;;;;;;;;;;5111210;28;20587;-78
2022/12/28 06:47:06;;;;;;;48.50;36.10;;;;;;;;;;5111642;28;20199;-79
2022/12/28 06:49:33;;;;;;;27.53;22.03;;;;;;;;;;5093977;28;20200;-77
2022/12/28 06:52:01;;;;;;;23.97;18.57;;;;;;;;;;5093404;28;20207;-79
2022/12/28 06:54:28;;;;;;;69.40;40.03;;;;;;;;;;5060162;28;20207;-78
2022/12/28 06:56:57;;;;;;;106.30;72.53;;;;;;;;;;5104608;28;20203;-76
2022/12/28 06:59:25;;;;;;;64.57;48.93;;;;;;;;;;5111761;28;20677;-76
2022/12/28 07:01:53;;;;;;;18.90;15.40;;;;;;;;;;5093658;28;20203;-78
2022/12/28 07:04:20;;;;;;;10.23;7.97;;;;;;;;;;5084951;28;20289;-78
2022/12/28 07:06:47;;;;;;;11.87;10.60;;;;;;;;;;5073183;28;20200;-78
2022/12/28 07:09:15;;;;;;;16.60;10.67;;;;;;;;;;5091163;28;20686;-78
2022/12/28 07:11:43;;;;;;;14.37;12.23;;;;;;;;;;5081750;28;20193;-79
2022/12/28 07:14:10;;;;;;;19.37;12.50;;;;;;;;;;5104116;28;20214;-78
2022/12/28 07:16:38;;;;;;;12.90;9.97;;;;;;;;;;5097961;28;20262;-79
2022/12/28 07:19:06;;;;;;;10.17;8.77;;;;;;;;;;5111292;28;20223;-78
2022/12/28 07:21:35;;;;;;;12.00;10.43;;;;;;;;;;5103828;28;20197;-78
2022/12/28 07:24:02;;;;;;;10.57;9.43;;;;;;;;;;5104210;28;20211;-79
2022/12/28 07:26:30;;;;;;;12.10;9.07;;;;;;;;;;5085021;28;20253;-78
2022/12/28 07:29:00;;;;;;;17.47;10.07;;;;;;;;;;5099543;28;20204;-80
2022/12/28 07:31:28;;;;;;;23.77;13.67;;;;;;;;;;5063804;28;20205;-78
2022/12/28 07:33:58;;;;;;;28.43;16.13;;;;;;;;;;5063338;28;20704;-80
2022/12/28 07:36:27;;;;;;;27.23;15.40;;;;;;;;;;5075519;28;20591;-77
2022/12/28 07:38:54;;;;;;;57.60;31.27;;;;;;;;;;5058108;28;20617;-78
2022/12/28 07:41:22;;;;;;;65.10;36.37;;;;;;;;;;5091041;28;20196;-77
2022/12/28 07:43:50;;;;;;;51.73;31.87;;;;;;;;;;5094446;28;20207;-74
2022/12/28 07:46:19;;;;;;;33.07;19.17;;;;;;;;;;5095240;28;20585;-77
2022/12/28 07:48:46;;;;;;;18.60;11.63;;;;;;;;;;5094326;28;20196;-77
2022/12/28 07:51:16;;;;;;;23.40;12.53;;;;;;;;;;5102720;28;20257;-77
2022/12/28 07:53:44;;;;;;;33.50;15.47;;;;;;;;;;5110656;28;20731;-77
2022/12/28 07:56:12;;;;;;;8.00;7.00;;;;;;;;;;5110101;28;20210;-77
2022/12/28 07:58:39;;;;;;;6.90;5.17;;;;;;;;;;5109966;28;20219;-77
2022/12/28 08:01:07;;;;;;;5.73;5.07;;;;;;;;;;5060622;28;20253;-77
2022/12/28 08:03:34;;;;;;;9.70;7.63;;;;;;;;;;5090565;28;20231;-77
2022/12/28 08:06:07;;;;;;;6.47;5.17;;;;;;;;;;5088926;28;20205;-78
2022/12/28 08:08:36;;;;;;;5.57;4.83;;;;;;;;;;5078783;28;20208;-77
2022/12/28 08:11:04;;;;;;;26.80;20.70;;;;;;;;;;5088289;28;20207;-78
2022/12/28 08:13:32;;;;;;;15.63;11.03;;;;;;;;;;5088054;28;20205;-79
2022/12/28 08:15:59;;;;;;;51.93;26.93;;;;;;;;;;5091059;28;20204;-78
2022/12/28 08:18:25;;;;;;;51.63;24.33;;;;;;;;;;5090846;28;20286;-77
2022/12/28 08:20:54;;;;;;;43.90;21.07;;;;;;;;;;5090928;28;20641;-79
2022/12/28 08:23:20;;;;;;;40.40;18.20;;;;;;;;;;5107640;28;20200;-78
2022/12/28 08:25:49;;;;;;;43.17;23.77;;;;;;;;;;5099131;28;20574;-78
2022/12/28 08:28:15;;;;;;;17.33;11.13;;;;;;;;;;5084393;28;20208;-78
2022/12/28 08:30:42;;;;;;;7.70;6.47;;;;;;;;;;5086345;28;20203;-78
2022/12/28 08:33:09;;;;;;;9.87;6.87;;;;;;;;;;5085478;28;20755;-78
2022/12/28 08:35:35;;;;;;;5.40;4.47;;;;;;;;;;5085389;28;20250;-78
2022/12/28 08:38:02;;;;;;;7.67;5.43;;;;;;;;;;5090054;28;20227;-78
2022/12/28 08:40:29;;;;;;;8.07;6.33;;;;;;;;;;5090209;28;20204;-78
2022/12/28 08:43:01;;;;;;;7.93;5.73;;;;;;;;;;5089903;28;20269;-78
2022/12/28 08:45:28;;;;;;;8.07;5.20;;;;;;;;;;5090457;28;20683;-77
2022/12/28 08:47:55;;;;;;;7.27;5.80;;;;;;;;;;5090418;28;20211;-77
2022/12/28 08:50:21;;;;;;;5.27;4.57;;;;;;;;;;5100043;28;20210;-78
2022/12/28 08:52:49;;;;;;;6.50;5.83;;;;;;;;;;5110328;28;20643;-77
2022/12/28 08:55:16;;;;;;;10.37;9.27;;;;;;;;;;5109968;28;20203;-81
2022/12/28 08:57:42;;;;;;;7.93;5.90;;;;;;;;;;5086933;28;20196;-81
2022/12/28 09:00:12;;;;;;;8.83;6.47;;;;;;;;;;5087607;28;20204;-81
2022/12/28 09:02:39;;;;;;;10.73;5.67;;;;;;;;;;5100795;28;20637;-81
2022/12/28 09:05:06;;;;;;;5.37;4.40;;;;;;;;;;5084610;28;20719;-81
2022/12/28 09:07:33;;;;;;;5.80;4.77;;;;;;;;;;5092310;28;20204;-81
2022/12/28 09:10:00;;;;;;;6.70;5.40;;;;;;;;;;5089337;28;20200;-81
2022/12/28 09:12:27;;;;;;;8.50;5.73;;;;;;;;;;5090138;28;20204;-80
2022/12/28 09:14:53;;;;;;;6.13;5.30;;;;;;;;;;5090225;28;20273;-81
2022/12/28 09:17:21;;;;;;;7.40;6.63;;;;;;;;;;5090272;28;20261;-81
2022/12/28 09:19:48;;;;;;;8.90;7.33;;;;;;;;;;5077696;28;20281;-81
2022/12/28 09:22:15;;;;;;;4.93;4.43;;;;;;;;;;5089271;28;20633;-81
2022/12/28 09:24:42;;;;;;;5.03;4.57;;;;;;;;;;5090054;28;20709;-81
2022/12/28 09:27:08;;;;;;;6.10;5.50;;;;;;;;;;5089726;28;20682;-81
2022/12/28 09:29:35;;;;;;;5.87;5.10;;;;;;;;;;5089867;28;20192;-82
2022/12/28 09:32:02;;;;;;;8.07;5.67;;;;;;;;;;5090017;28;20200;-81
2022/12/28 09:34:30;;;;;;;5.13;4.60;;;;;;;;;;5089901;28;20200;-81
2022/12/28 09:36:57;;;;;;;6.90;4.30;;;;;;;;;;5087419;28;20752;-81
2022/12/28 09:39:24;;;;;;;4.43;3.60;;;;;;;;;;5105142;28;20227;-81
2022/12/28 09:41:55;;;;;;;4.83;4.20;;;;;;;;;;5094223;28;20223;-81
2022/12/28 09:44:42;;;;;;;5.83;4.60;;;;;;;;;;5087008;28;20208;-84
2022/12/28 09:47:19;;;;;;;7.83;5.90;;;;;;;;;;5091522;28;20573;-81
2022/12/28 09:49:58;;;;;;;3.87;3.47;;;;;;;;;;5096099;28;20196;-81
2022/12/28 09:52:28;;;;;;;6.03;5.23;;;;;;;;;;5087565;28;20744;-80
2022/12/28 09:54:57;;;;;;;11.23;6.87;;;;;;;;;;5085479;28;20212;-81
2022/12/28 09:57:26;;;;;;;6.33;5.20;;;;;;;;;;5086801;28;20192;-81
2022/12/28 09:59:55;;;;;;;25.67;16.23;;;;;;;;;;5105737;28;20223;-81
2022/12/28 10:02:26;;;;;;;52.53;28.97;;;;;;;;;;5112070;28;20249;-81
2022/12/28 10:04:54;;;;;;;84.80;41.57;;;;;;;;;;5103332;28;20778;-84
2022/12/28 10:07:21;;;;;;;107.27;45.20;;;;;;;;;;5114244;28;20210;-81
2022/12/28 10:09:48;;;;;;;70.97;42.20;;;;;;;;;;5095381;28;20196;-81
2022/12/28 10:12:16;;;;;;;30.23;19.37;;;;;;;;;;5101736;28;20200;-82
2022/12/28 10:14:45;;;;;;;16.83;12.97;;;;;;;;;;5088208;28;20209;-81
2022/12/28 10:17:13;;;;;;;39.27;25.83;;;;;;;;;;5085711;28;20246;-81
2022/12/28 10:19:40;;;;;;;14.17;10.53;;;;;;;;;;5112596;28;20238;-82
2022/12/28 10:22:11;;;;;;;10.63;9.17;;;;;;;;;;5113460;28;20210;-81
2022/12/28 10:24:39;;;;;;;8.53;6.87;;;;;;;;;;5080075;28;20196;-81
2022/12/28 10:27:08;;;;;;;13.73;12.23;;;;;;;;;;5093361;28;20212;-81
2022/12/28 10:29:35;;;;;;;7.97;7.20;;;;;;;;;;5093380;28;20205;-82
2022/12/28 10:32:08;;;;;;;6.40;5.23;;;;;;;;;;5092429;28;20192;-80
2022/12/28 10:34:36;;;;;;;11.03;7.87;;;;;;;;;;5090097;28;20994;-81
2022/12/28 10:37:13;;;;;;;9.53;8.53;;;;;;;;;;5095123;28;20207;-80
2022/12/28 10:39:40;;;;;;;11.60;7.80;;;;;;;;;;5083550;28;20223;-81
2022/12/28 10:42:20;;;;;;;9.13;7.13;;;;;;;;;;5096784;28;20268;-81
2022/12/28 10:44:49;;;;;;;8.30;7.03;;;;;;;;;;5100095;28;20211;-80
2022/12/28 10:47:28;;;;;;;11.53;9.00;;;;;;;;;;5092699;28;20204;-81
2022/12/28 10:49:54;;;;;;;13.47;8.73;;;;;;;;;;5093481;28;20227;-82
2022/12/28 10:52:23;;;;;;;7.87;7.07;;;;;;;;;;5102632;28;20261;-81
2022/12/28 10:54:50;;;;;;;8.70;7.93;;;;;;;;;;5100450;28;20671;-81
2022/12/28 10:57:17;;;;;;;8.40;6.87;;;;;;;;;;5100943;28;20645;-81
2022/12/28 10:59:45;;;;;;;7.07;6.03;;;;;;;;;;5086463;28;20915;-81
2022/12/28 11:02:24;;;;;;;13.53;9.67;;;;;;;;;;5085851;28;20640;-82
2022/12/28 11:04:59;;;;;;;11.43;9.87;;;;;;;;;;5093134;28;20236;-83
2022/12/28 11:07:37;;;;;;;8.03;7.23;;;;;;;;;;5092837;28;20206;-83
2022/12/28 11:10:25;;;;;;;6.87;6.17;;;;;;;;;;5079961;28;20205;-81
2022/12/28 11:12:54;;;;;;;8.07;6.53;;;;;;;;;;5080056;28;20212;-83
2022/12/28 11:15:23;;;;;;;7.27;6.47;;;;;;;;;;5092662;28;20250;-81
2022/12/28 11:17:54;;;;;;;17.67;12.13;;;;;;;;;;5092219;28;20204;-81
2022/12/28 11:20:23;;;;;;;15.10;11.93;;;;;;;;;;5092148;28;20228;-81
2022/12/28 11:22:52;;;;;;;14.57;11.57;;;;;;;;;;5092531;28;20206;-80
2022/12/28 11:25:20;;;;;;;8.23;7.33;;;;;;;;;;5091469;28;20576;-81
2022/12/28 11:27:47;;;;;;;15.77;11.17;;;;;;;;;;5092281;28;20201;-81
2022/12/28 11:30:16;;;;;;;11.80;8.67;;;;;;;;;;5090819;28;20208;-80
2022/12/28 11:32:47;;;;;;;51.93;33.10;;;;;;;;;;5072196;28;20193;-80
2022/12/28 11:35:16;;;;;;;34.50;18.97;;;;;;;;;;5089236;28;20216;-80
2022/12/28 11:37:49;;;;;;;83.13;38.30;;;;;;;;;;5089551;28;20200;-81
2022/12/28 11:40:49;;;;;;;93.67;45.93;;;;;;;;;;5083719;28;20221;-81
2022/12/28 11:43:54;;;;;;;42.30;19.93;;;;;;;;;;5101477;28;20203;-80
2022/12/28 11:46:38;;;;;;;31.83;17.00;;;;;;;;;;5009764;28;20210;-81
2022/12/28 11:49:26;;;;;;;78.40;30.90;;;;;;;;;;5082576;28;20204;-80
2022/12/28 11:52:33;;;;;;;48.50;22.47;;;;;;;;;;5092277;28;20226;-80
2022/12/28 11:55:02;;;;;;;20.17;13.73;;;;;;;;;;5080727;28;20283;-80
2022/12/28 11:57:38;;;;;;;34.17;18.13;;;;;;;;;;5091097;28;20279;-81
2022/12/28 12:00:48;;;;;;;30.73;20.57;;;;;;;;;;5091253;28;20231;-81
2022/12/28 12:03:15;;;;;;;29.30;19.83;;;;;;;;;;5082842;28;20236;-80
2022/12/28 12:05:52;;;;;;;19.17;12.10;;;;;;;;;;5099748;28;20659;-81
2022/12/28 12:08:42;;;;;;;15.47;12.77;;;;;;;;;;5092584;28;20225;-80
2022/12/28 12:11:31;;;;;;;18.20;13.83;;;;;;;;;;5090616;28;20269;-81
2022/12/28 12:14:02;;;;;;;20.37;13.57;;;;;;;;;;5084663;28;20204;-81
2022/12/28 12:16:34;;;;;;;12.23;10.43;;;;;;;;;;5092044;28;20192;-82
2022/12/28 12:19:02;;;;;;;13.73;11.23;;;;;;;;;;5105204;28;20225;-81
2022/12/28 12:21:34;;;;;;;17.17;11.57;;;;;;;;;;5102142;28;20224;-82
2022/12/28 12:24:08;;;;;;;19.53;13.33;;;;;;;;;;5106482;28;20661;-81
2022/12/28 12:26:38;;;;;;;14.00;10.67;;;;;;;;;;5111215;28;20701;-80
2022/12/28 12:29:11;;;;;;;9.00;7.43;;;;;;;;;;5110510;28;20638;-80
2022/12/28 12:31:43;;;;;;;13.33;10.97;;;;;;;;;;5105895;28;20211;-80
2022/12/28 12:34:16;;;;;;;15.27;10.63;;;;;;;;;;5093260;28;20204;-81
2022/12/28 12:37:16;;;;;;;10.13;9.10;;;;;;;;;;5090437;28;20698;-81
2022/12/28 12:40:02;;;;;;;7.37;6.67;;;;;;;;;;5080779;28;20223;-81
2022/12/28 12:42:36;;;;;;;10.63;9.53;;;;;;;;;;5090514;28;20196;-80
2022/12/28 12:45:12;;;;;;;10.70;7.13;;;;;;;;;;5091871;28;20204;-80
2022/12/28 12:48:16;;;;;;;9.57;8.37;;;;;;;;;;5082231;28;20209;-80
2022/12/28 12:51:03;;;;;;;20.73;15.90;;;;;;;;;;5088722;28;20235;-80
2022/12/28 12:53:41;;;;;;;8.27;7.40;;;;;;;;;;5065492;28;20212;-82
2022/12/28 12:56:13;;;;;;;7.90;6.63;;;;;;;;;;5103658;28;20199;-80
2022/12/28 12:58:48;;;;;;;12.13;8.67;;;;;;;;;;5096728;28;20672;-80
2022/12/28 13:01:35;;;;;;;7.17;6.47;;;;;;;;;;5072777;28;20200;-80
2022/12/28 13:04:07;;;;;;;12.90;10.00;;;;;;;;;;5099354;28;20642;-80
2022/12/28 13:06:35;;;;;;;14.13;11.23;;;;;;;;;;5088810;28;20205;-80
2022/12/28 13:09:05;;;;;;;14.87;12.20;;;;;;;;;;5099816;28;20210;-81
2022/12/28 13:11:35;;;;;;;28.03;17.30;;;;;;;;;;5098603;28;20256;-80
2022/12/28 13:14:03;;;;;;;25.30;18.80;;;;;;;;;;5095843;28;20215;-81
2022/12/28 13:16:32;;;;;;;11.33;7.87;;;;;;;;;;5108449;28;20717;-80
2022/12/28 13:19:00;;;;;;;45.50;27.67;;;;;;;;;;5091896;28;20290;-80
2022/12/28 13:21:28;;;;;;;19.10;14.57;;;;;;;;;;5096832;28;20561;-81
2022/12/28 13:23:55;;;;;;;9.73;8.40;;;;;;;;;;5069280;28;20196;-80
2022/12/28 13:26:27;;;;;;;8.20;6.93;;;;;;;;;;5100388;28;20204;-80
2022/12/28 13:28:58;;;;;;;7.07;5.87;;;;;;;;;;5093944;28;20355;-81
2022/12/28 13:31:32;;;;;;;7.40;5.47;;;;;;;;;;5081882;28;20231;-81
2022/12/28 13:34:00;;;;;;;5.07;4.27;;;;;;;;;;5094713;28;20253;-81
2022/12/28 13:36:27;;;;;;;6.47;5.10;;;;;;;;;;5084617;28;20691;-82
2022/12/28 13:39:06;;;;;;;5.57;4.53;;;;;;;;;;5090173;28;20207;-81
2022/12/28 13:41:35;;;;;;;6.33;5.73;;;;;;;;;;5093877;28;20203;-81
2022/12/28 13:44:22;;;;;;;5.57;4.23;;;;;;;;;;5094306;28;20299;-81
2022/12/28 13:46:54;;;;;;;5.83;3.80;;;;;;;;;;5093394;28;20213;-79
2022/12/28 13:49:22;;;;;;;16.30;11.87;;;;;;;;;;5103087;28;20208;-79
2022/12/28 13:51:49;;;;;;;39.07;20.10;;;;;;;;;;5098085;28;20205;-79
2022/12/28 13:54:15;;;;;;;27.93;17.33;;;;;;;;;;5094369;28;20208;-81
2022/12/28 13:56:46;;;;;;;21.53;13.97;;;;;;;;;;5107272;28;20353;-79
2022/12/28 13:59:15;;;;;;;19.37;13.93;;;;;;;;;;5104532;28;20199;-80
2022/12/28 14:01:43;;;;;;;36.63;25.63;;;;;;;;;;5108390;28;20635;-81
2022/12/28 14:04:14;;;;;;;36.03;24.97;;;;;;;;;;5094628;28;20700;-79
2022/12/28 14:06:41;;;;;;;38.07;26.47;;;;;;;;;;5080320;28;20291;-79
2022/12/28 14:09:10;;;;;;;24.33;19.60;;;;;;;;;;5106416;28;20199;-80
2022/12/28 14:11:37;;;;;;;14.00;11.13;;;;;;;;;;5087808;28;20201;-81
2022/12/28 14:14:04;;;;;;;16.73;13.43;;;;;;;;;;5085390;28;20211;-85
2022/12/28 14:16:31;;;;;;;10.23;8.00;;;;;;;;;;5073327;28;20208;-79
2022/12/28 14:18:59;;;;;;;21.47;16.77;;;;;;;;;;5089614;28;20622;-81
2022/12/28 14:21:35;;;;;;;33.00;26.03;;;;;;;;;;5093017;28;20220;-81
2022/12/28 14:24:03;;;;;;;20.57;17.13;;;;;;;;;;5093065;28;20227;-81
2022/12/28 14:26:30;;;;;;;25.37;20.00;;;;;;;;;;5092915;28;20753;-81
2022/12/28 14:28:58;;;;;;;31.77;25.17;;;;;;;;;;5092298;28;20208;-80
2022/12/28 14:31:28;;;;;;;16.80;13.17;;;;;;;;;;5092927;28;20273;-81
2022/12/28 14:33:56;;;;;;;44.60;29.97;;;;;;;;;;5091803;28;20200;-80
2022/12/28 14:36:29;;;;;;;20.67;15.93;;;;;;;;;;5093012;28;20196;-80
2022/12/28 14:38:59;;;;;;;17.00;14.90;;;;;;;;;;5093073;28;20702;-80
2022/12/28 14:41:29;;;;;;;13.33;11.77;;;;;;;;;;5092668;28;20725;-80
2022/12/28 14:43:58;;;;;;;8.40;6.93;;;;;;;;;;5091915;28;20341;-80
2022/12/28 14:46:33;;;;;;;11.73;7.73;;;;;;;;;;5092720;28;20207;-80
2022/12/28 14:49:01;;;;;;;26.37;18.90;;;;;;;;;;5092837;28;20199;-80
2022/12/28 14:51:30;;;;;;;15.90;12.93;;;;;;;;;;5092417;28;20212;-80
2022/12/28 14:54:15;;;;;;;12.43;10.30;;;;;;;;;;5092830;28;20200;-80
2022/12/28 14:56:43;;;;;;;20.53;13.53;;;;;;;;;;5101662;28;20244;-80
2022/12/28 14:59:18;;;;;;;29.67;18.53;;;;;;;;;;5111480;28;20200;-81
2022/12/28 15:01:46;;;;;;;37.27;21.87;;;;;;;;;;5112739;28;20226;-80
2022/12/28 15:04:28;;;;;;;29.57;19.20;;;;;;;;;;5092013;28;20227;-81
2022/12/28 15:06:55;;;;;;;16.60;10.13;;;;;;;;;;5099470;28;20195;-80
2022/12/28 15:09:23;;;;;;;4.67;4.27;;;;;;;;;;5095904;28;20196;-80
2022/12/28 15:12:07;;;;;;;2.90;2.70;;;;;;;;;;5091583;28;20200;-80
2022/12/28 15:14:33;;;;;;;4.73;3.37;;;;;;;;;;5094699;28;20653;-81
2022/12/28 15:17:00;;;;;;;8.93;6.07;;;;;;;;;;5112533;28;20203;-80
2022/12/28 15:19:27;;;;;;;3.43;3.07;;;;;;;;;;5112147;28;20284;-80